GLO9940 SBPA-SAME
Flight info
| Callsign | GLO9940 |
|---|---|
| Flight time | 2h 35m |
| Altitude | 36000 |
| Route | POXEV UM418 CBA UL531 SALBO |
| Aircraft | B737/M-SDFGIKLORWXY/LB1 |
Departure
| Time | 2026-05-07 20:25 |
|---|---|
| Airport | Porto Alegre-Salgado Filho International Airport (SBPA) |
Arrival
| Time | 2026-05-07 23:00 |
|---|---|
| Airport | Governor Francisco Gabrielli International Airport (SAME) |
| Time | Latitude | Longitude | Altitude | Speed | Heading |
|---|---|---|---|---|---|
| 2026-05-07 20:20 | -29.99172 | -51.17447 | 16 ft | 0 kts | 272° |
| 2026-05-07 20:20 | -29.99172 | -51.17467 | 16 ft | 5 kts | 271° |
| 2026-05-07 20:21 | -29.99171 | -51.17526 | 15 ft | 10 kts | 271° |
| 2026-05-07 20:21 | -29.99169 | -51.17625 | 15 ft | 14 kts | 271° |
| 2026-05-07 20:21 | -29.99191 | -51.17692 | 15 ft | 9 kts | 202° |
| 2026-05-07 20:21 | -29.99253 | -51.17702 | 15 ft | 9 kts | 195° |
| 2026-05-07 20:22 | -29.99286 | -51.17756 | 15 ft | 9 kts | 268° |
| 2026-05-07 20:22 | -29.99284 | -51.17826 | 15 ft | 9 kts | 272° |
| 2026-05-07 20:22 | -29.99280 | -51.17909 | 15 ft | 13 kts | 275° |
| 2026-05-07 20:22 | -29.99293 | -51.18025 | 16 ft | 17 kts | 251° |
| 2026-05-07 20:23 | -29.99338 | -51.18164 | 15 ft | 16 kts | 249° |
| 2026-05-07 20:23 | -29.99380 | -51.18236 | 16 ft | 10 kts | 222° |
| 2026-05-07 20:23 | -29.99430 | -51.18283 | 17 ft | 7 kts | 212° |
| 2026-05-07 20:23 | -29.99440 | -51.18271 | 16 ft | 2 kts | 98° |
| 2026-05-07 20:24 | -29.99440 | -51.18265 | 16 ft | 0 kts | 90° |
| 2026-05-07 20:24 | -29.99440 | -51.18258 | 16 ft | 9 kts | 90° |
| 2026-05-07 20:24 | -29.99448 | -51.17831 | 17 ft | 96 kts | 91° |
| 2026-05-07 20:24 | -29.99466 | -51.16750 | 16 ft | 170 kts | 90° |
| 2026-05-07 20:25 | -29.99509 | -51.15208 | 444 ft | 201 kts | 89° |
| 2026-05-07 20:25 | -29.99536 | -51.13595 | 1530 ft | 200 kts | 83° |
| 2026-05-07 20:25 | -29.99731 | -51.11897 | 2119 ft | 239 kts | 108° |
| 2026-05-07 20:25 | -30.00889 | -51.10369 | 2506 ft | 275 kts | 152° |
| 2026-05-07 20:26 | -30.02750 | -51.09852 | 3360 ft | 280 kts | 184° |
| 2026-05-07 20:26 | -30.04704 | -51.09950 | 4369 ft | 281 kts | 188° |
| 2026-05-07 20:26 | -30.06662 | -51.10083 | 5404 ft | 285 kts | 188° |
| 2026-05-07 20:26 | -30.08663 | -51.10222 | 5989 ft | 291 kts | 192° |
| 2026-05-07 20:27 | -30.10541 | -51.11038 | 6607 ft | 287 kts | 227° |
| 2026-05-07 20:27 | -30.11740 | -51.12792 | 7456 ft | 276 kts | 252° |
| 2026-05-07 20:27 | -30.12292 | -51.14885 | 8373 ft | 271 kts | 267° |
| 2026-05-07 20:27 | -30.12543 | -51.17071 | 9259 ft | 277 kts | 269° |
| 2026-05-07 20:28 | -30.12741 | -51.19310 | 10074 ft | 283 kts | 270° |
| 2026-05-07 20:28 | -30.12932 | -51.21634 | 10593 ft | 302 kts | 270° |
| 2026-05-07 20:28 | -30.13139 | -51.24151 | 10902 ft | 324 kts | 269° |
| 2026-05-07 20:28 | -30.13366 | -51.26775 | 11618 ft | 331 kts | 269° |
| 2026-05-07 20:29 | -30.13606 | -51.29427 | 12510 ft | 332 kts | 270° |
| 2026-05-07 20:29 | -30.13847 | -51.32046 | 13361 ft | 334 kts | 270° |
| 2026-05-07 20:29 | -30.14100 | -51.34756 | 14128 ft | 336 kts | 270° |
| 2026-05-07 20:29 | -30.14349 | -51.37416 | 14882 ft | 338 kts | 270° |
| 2026-05-07 20:30 | -30.14602 | -51.40132 | 15639 ft | 341 kts | 270° |
| 2026-05-07 20:30 | -30.14858 | -51.42874 | 16379 ft | 344 kts | 271° |
| 2026-05-07 20:30 | -30.15116 | -51.45636 | 17098 ft | 348 kts | 270° |
| 2026-05-07 20:30 | -30.15377 | -51.48435 | 17862 ft | 351 kts | 271° |
| 2026-05-07 20:31 | -30.15639 | -51.51254 | 18528 ft | 354 kts | 271° |
| 2026-05-07 20:31 | -30.15900 | -51.54060 | 19204 ft | 356 kts | 271° |
| 2026-05-07 20:31 | -30.16164 | -51.56913 | 19893 ft | 358 kts | 271° |
| 2026-05-07 20:31 | -30.16430 | -51.59780 | 20579 ft | 360 kts | 270° |
| 2026-05-07 20:32 | -30.17484 | -51.71246 | 23098 ft | 369 kts | 270° |
| 2026-05-07 20:33 | -30.18250 | -51.79641 | 24619 ft | 375 kts | 270° |
| 2026-05-07 20:33 | -30.18523 | -51.82646 | 25127 ft | 378 kts | 270° |
| 2026-05-07 20:34 | -30.18797 | -51.85684 | 25610 ft | 380 kts | 270° |
| 2026-05-07 20:34 | -30.19073 | -51.88738 | 26115 ft | 382 kts | 270° |
| 2026-05-07 20:34 | -30.19349 | -51.91802 | 26642 ft | 383 kts | 270° |
| 2026-05-07 20:34 | -30.19622 | -51.94835 | 27119 ft | 385 kts | 270° |
| 2026-05-07 20:35 | -30.19899 | -51.97927 | 27576 ft | 388 kts | 270° |
| 2026-05-07 20:35 | -30.20176 | -52.01039 | 28009 ft | 390 kts | 270° |
| 2026-05-07 20:35 | -30.20456 | -52.04177 | 28467 ft | 392 kts | 270° |
| 2026-05-07 20:35 | -30.20735 | -52.07319 | 28974 ft | 393 kts | 270° |
| 2026-05-07 20:36 | -30.21014 | -52.10467 | 29483 ft | 394 kts | 270° |
| 2026-05-07 20:36 | -30.21294 | -52.13633 | 29906 ft | 395 kts | 270° |
| 2026-05-07 20:36 | -30.21573 | -52.16796 | 30316 ft | 396 kts | 270° |
| 2026-05-07 20:36 | -30.21852 | -52.19963 | 30727 ft | 396 kts | 270° |
| 2026-05-07 20:37 | -30.22127 | -52.23092 | 31147 ft | 396 kts | 269° |
| 2026-05-07 20:37 | -30.22405 | -52.26268 | 31558 ft | 397 kts | 269° |
| 2026-05-07 20:37 | -30.22682 | -52.29446 | 31989 ft | 397 kts | 268° |
| 2026-05-07 20:37 | -30.22958 | -52.32628 | 32310 ft | 399 kts | 268° |
| 2026-05-07 20:38 | -30.23235 | -52.35830 | 32663 ft | 400 kts | 267° |
| 2026-05-07 20:38 | -30.23511 | -52.39033 | 33069 ft | 400 kts | 267° |
| 2026-05-07 20:38 | -30.23787 | -52.42228 | 33464 ft | 400 kts | 266° |
| 2026-05-07 20:38 | -30.24062 | -52.45430 | 33790 ft | 400 kts | 266° |
| 2026-05-07 20:39 | -30.24337 | -52.48639 | 34062 ft | 401 kts | 266° |
| 2026-05-07 20:39 | -30.24611 | -52.51861 | 34311 ft | 403 kts | 266° |
| 2026-05-07 20:39 | -30.24886 | -52.55091 | 34534 ft | 406 kts | 266° |
| 2026-05-07 20:39 | -30.25162 | -52.58351 | 34714 ft | 409 kts | 266° |
| 2026-05-07 20:40 | -30.25439 | -52.61623 | 34967 ft | 409 kts | 266° |
| 2026-05-07 20:40 | -30.25712 | -52.64864 | 35239 ft | 410 kts | 266° |
| 2026-05-07 20:40 | -30.25989 | -52.68152 | 35478 ft | 411 kts | 266° |
| 2026-05-07 20:40 | -30.26265 | -52.71447 | 35626 ft | 413 kts | 266° |
| 2026-05-07 20:41 | -30.26542 | -52.74755 | 35615 ft | 413 kts | 266° |
| 2026-05-07 20:41 | -30.27091 | -52.81347 | 35622 ft | 410 kts | 266° |
| 2026-05-07 20:42 | -30.27633 | -52.87893 | 35611 ft | 409 kts | 266° |
| 2026-05-07 20:42 | -30.28170 | -52.94439 | 35615 ft | 408 kts | 266° |
| 2026-05-07 20:43 | -30.28701 | -53.00931 | 35618 ft | 407 kts | 266° |
| 2026-05-07 20:43 | -30.29231 | -53.07459 | 35598 ft | 407 kts | 267° |
| 2026-05-07 20:44 | -30.29756 | -53.13979 | 35599 ft | 407 kts | 267° |
| 2026-05-07 20:44 | -30.30280 | -53.20505 | 35589 ft | 407 kts | 267° |
| 2026-05-07 20:45 | -30.30800 | -53.27030 | 35599 ft | 407 kts | 268° |
| 2026-05-07 20:45 | -30.31316 | -53.33550 | 35585 ft | 407 kts | 268° |
| 2026-05-07 20:46 | -30.31829 | -53.40073 | 35581 ft | 406 kts | 268° |
| 2026-05-07 20:46 | -30.32375 | -53.46587 | 35582 ft | 407 kts | 266° |
| 2026-05-07 20:47 | -30.33266 | -53.53035 | 35584 ft | 408 kts | 264° |
| 2026-05-07 20:47 | -30.34207 | -53.59520 | 35576 ft | 407 kts | 264° |
| 2026-05-07 20:48 | -30.35100 | -53.65995 | 35578 ft | 407 kts | 265° |
| 2026-05-07 20:48 | -30.35981 | -53.72464 | 35573 ft | 407 kts | 265° |
| 2026-05-07 20:49 | -30.36854 | -53.78898 | 35583 ft | 407 kts | 265° |
| 2026-05-07 20:49 | -30.37730 | -53.85376 | 35574 ft | 407 kts | 265° |
| 2026-05-07 20:50 | -30.38604 | -53.91854 | 35573 ft | 407 kts | 265° |
| 2026-05-07 20:50 | -30.39474 | -53.98330 | 35570 ft | 406 kts | 265° |
| 2026-05-07 20:51 | -30.40340 | -54.04794 | 35572 ft | 405 kts | 267° |
| 2026-05-07 20:51 | -30.41197 | -54.11218 | 35562 ft | 401 kts | 267° |
| 2026-05-07 20:52 | -30.42038 | -54.17537 | 35565 ft | 397 kts | 267° |
| 2026-05-07 20:52 | -30.42870 | -54.23825 | 35566 ft | 394 kts | 267° |
| 2026-05-07 20:53 | -30.43694 | -54.30082 | 35574 ft | 392 kts | 268° |
| 2026-05-07 20:53 | -30.44513 | -54.36324 | 35552 ft | 390 kts | 268° |
| 2026-05-07 20:54 | -30.45323 | -54.42521 | 35576 ft | 388 kts | 268° |
| 2026-05-07 20:54 | -30.46130 | -54.48713 | 35577 ft | 388 kts | 268° |
| 2026-05-07 20:55 | -30.46927 | -54.54860 | 35586 ft | 388 kts | 269° |
| 2026-05-07 20:55 | -30.47729 | -54.61059 | 35583 ft | 389 kts | 269° |
| 2026-05-07 20:56 | -30.48529 | -54.67272 | 35572 ft | 390 kts | 269° |
| 2026-05-07 20:56 | -30.49327 | -54.73488 | 35572 ft | 390 kts | 269° |
| 2026-05-07 20:57 | -30.50124 | -54.79724 | 35578 ft | 391 kts | 269° |
| 2026-05-07 20:57 | -30.50920 | -54.85973 | 35568 ft | 392 kts | 269° |
| 2026-05-07 20:58 | -30.51716 | -54.92242 | 35569 ft | 393 kts | 269° |
| 2026-05-07 20:58 | -30.52505 | -54.98489 | 35552 ft | 394 kts | 269° |
| 2026-05-07 20:59 | -30.53293 | -55.04786 | 35564 ft | 395 kts | 269° |
| 2026-05-07 20:59 | -30.54080 | -55.11100 | 35574 ft | 396 kts | 269° |
| 2026-05-07 21:00 | -30.54868 | -55.17436 | 35565 ft | 397 kts | 269° |
| 2026-05-07 21:00 | -30.55619 | -55.23785 | 35572 ft | 397 kts | 270° |
| 2026-05-07 21:01 | -30.56347 | -55.30155 | 35569 ft | 399 kts | 270° |
| 2026-05-07 21:01 | -30.57073 | -55.36508 | 35570 ft | 400 kts | 270° |
| 2026-05-07 21:02 | -30.57807 | -55.42926 | 35573 ft | 402 kts | 270° |
| 2026-05-07 21:02 | -30.58541 | -55.49370 | 35575 ft | 403 kts | 270° |
| 2026-05-07 21:03 | -30.59275 | -55.55831 | 35577 ft | 405 kts | 270° |
| 2026-05-07 21:03 | -30.60008 | -55.62325 | 35587 ft | 406 kts | 270° |
| 2026-05-07 21:04 | -30.60741 | -55.68840 | 35595 ft | 407 kts | 270° |
| 2026-05-07 21:04 | -30.61474 | -55.75376 | 35597 ft | 408 kts | 270° |
| 2026-05-07 21:05 | -30.62199 | -55.81881 | 35607 ft | 409 kts | 271° |
| 2026-05-07 21:05 | -30.62927 | -55.88441 | 35603 ft | 409 kts | 271° |
| 2026-05-07 21:06 | -30.63651 | -55.94989 | 35616 ft | 409 kts | 271° |
| 2026-05-07 21:06 | -30.64370 | -56.01532 | 35615 ft | 408 kts | 271° |
| 2026-05-07 21:07 | -30.65085 | -56.08065 | 35617 ft | 407 kts | 271° |
| 2026-05-07 21:07 | -30.65795 | -56.14583 | 35626 ft | 406 kts | 271° |
| 2026-05-07 21:08 | -30.66513 | -56.21091 | 35625 ft | 406 kts | 271° |
| 2026-05-07 21:08 | -30.67243 | -56.27590 | 35616 ft | 405 kts | 271° |
| 2026-05-07 21:09 | -30.67962 | -56.34027 | 35634 ft | 405 kts | 272° |
| 2026-05-07 21:09 | -30.68680 | -56.40507 | 35632 ft | 403 kts | 272° |
| 2026-05-07 21:10 | -30.69393 | -56.46974 | 35641 ft | 403 kts | 272° |
| 2026-05-07 21:10 | -30.70101 | -56.53429 | 35640 ft | 402 kts | 272° |
| 2026-05-07 21:11 | -30.70805 | -56.59869 | 35674 ft | 402 kts | 274° |
| 2026-05-07 21:11 | -30.71877 | -56.69506 | 35656 ft | 402 kts | 274° |
| 2026-05-07 21:12 | -30.72583 | -56.75948 | 35667 ft | 402 kts | 274° |
| 2026-05-07 21:12 | -30.73277 | -56.82411 | 35668 ft | 403 kts | 274° |
| 2026-05-07 21:13 | -30.73970 | -56.88883 | 35682 ft | 404 kts | 275° |
| 2026-05-07 21:13 | -30.74546 | -56.94276 | 35686 ft | 405 kts | 275° |
| 2026-05-07 21:14 | -30.75238 | -57.00773 | 35701 ft | 405 kts | 275° |
| 2026-05-07 21:14 | -30.76038 | -57.08328 | 35696 ft | 405 kts | 275° |
| 2026-05-07 21:15 | -30.76613 | -57.13779 | 35734 ft | 406 kts | 275° |
| 2026-05-07 21:15 | -30.77297 | -57.20295 | 35723 ft | 406 kts | 275° |
| 2026-05-07 21:16 | -30.77978 | -57.26805 | 35709 ft | 405 kts | 275° |
| 2026-05-07 21:16 | -30.78647 | -57.33249 | 35725 ft | 403 kts | 275° |
| 2026-05-07 21:17 | -30.79317 | -57.39726 | 35779 ft | 403 kts | 276° |
| 2026-05-07 21:17 | -30.79983 | -57.46202 | 35742 ft | 403 kts | 276° |
| 2026-05-07 21:18 | -30.80645 | -57.52680 | 35737 ft | 402 kts | 276° |
| 2026-05-07 21:18 | -30.81300 | -57.59128 | 35728 ft | 401 kts | 275° |
| 2026-05-07 21:19 | -30.82009 | -57.65579 | 35797 ft | 405 kts | 272° |
| 2026-05-07 21:19 | -30.83138 | -57.72013 | 35760 ft | 410 kts | 270° |
| 2026-05-07 21:20 | -30.84386 | -57.78547 | 35745 ft | 411 kts | 270° |
| 2026-05-07 21:20 | -30.85591 | -57.85004 | 35753 ft | 411 kts | 270° |
| 2026-05-07 21:21 | -30.86776 | -57.91515 | 35754 ft | 411 kts | 270° |
| 2026-05-07 21:21 | -30.87947 | -57.98048 | 35757 ft | 413 kts | 270° |
| 2026-05-07 21:22 | -30.89115 | -58.04588 | 35755 ft | 413 kts | 270° |
| 2026-05-07 21:22 | -30.90284 | -58.11156 | 35744 ft | 414 kts | 270° |
| 2026-05-07 21:23 | -30.91450 | -58.17722 | 35746 ft | 414 kts | 270° |
| 2026-05-07 21:23 | -30.92613 | -58.24296 | 35765 ft | 415 kts | 270° |
| 2026-05-07 21:24 | -30.93770 | -58.30858 | 35759 ft | 415 kts | 270° |
| 2026-05-07 21:24 | -30.94928 | -58.37439 | 35751 ft | 415 kts | 270° |
| 2026-05-07 21:25 | -30.96084 | -58.44029 | 35753 ft | 415 kts | 270° |
| 2026-05-07 21:25 | -30.97233 | -58.50601 | 35778 ft | 414 kts | 270° |
| 2026-05-07 21:26 | -30.98379 | -58.57176 | 35767 ft | 413 kts | 270° |
| 2026-05-07 21:26 | -30.99518 | -58.63727 | 35753 ft | 411 kts | 270° |
| 2026-05-07 21:27 | -31.00646 | -58.70237 | 35760 ft | 409 kts | 271° |
| 2026-05-07 21:27 | -31.01765 | -58.76723 | 35760 ft | 407 kts | 271° |
| 2026-05-07 21:28 | -31.02870 | -58.83154 | 35763 ft | 407 kts | 271° |
| 2026-05-07 21:28 | -31.03979 | -58.89628 | 35765 ft | 406 kts | 271° |
| 2026-05-07 21:29 | -31.05085 | -58.96102 | 35766 ft | 406 kts | 271° |
| 2026-05-07 21:29 | -31.06186 | -59.02566 | 35764 ft | 407 kts | 271° |
| 2026-05-07 21:30 | -31.07286 | -59.09050 | 35775 ft | 408 kts | 270° |
| 2026-05-07 21:30 | -31.08386 | -59.15539 | 35773 ft | 407 kts | 270° |
| 2026-05-07 21:31 | -31.09481 | -59.22019 | 35771 ft | 407 kts | 270° |
| 2026-05-07 21:31 | -31.10562 | -59.28442 | 35773 ft | 406 kts | 270° |
| 2026-05-07 21:32 | -31.11646 | -59.34909 | 35804 ft | 406 kts | 269° |
| 2026-05-07 21:32 | -31.12728 | -59.41388 | 35789 ft | 406 kts | 269° |
| 2026-05-07 21:33 | -31.13806 | -59.47852 | 35782 ft | 406 kts | 269° |
| 2026-05-07 21:33 | -31.14881 | -59.54323 | 35792 ft | 406 kts | 269° |
| 2026-05-07 21:34 | -31.15952 | -59.60789 | 35834 ft | 406 kts | 269° |
| 2026-05-07 21:34 | -31.17020 | -59.67268 | 35800 ft | 406 kts | 268° |
| 2026-05-07 21:35 | -31.18079 | -59.73706 | 35803 ft | 407 kts | 268° |
| 2026-05-07 21:35 | -31.19145 | -59.80208 | 35798 ft | 407 kts | 268° |
| 2026-05-07 21:36 | -31.20207 | -59.86707 | 35803 ft | 408 kts | 268° |
| 2026-05-07 21:36 | -31.21269 | -59.93230 | 35809 ft | 409 kts | 267° |
| 2026-05-07 21:37 | -31.22327 | -59.99748 | 35787 ft | 409 kts | 267° |
| 2026-05-07 21:37 | -31.23383 | -60.06267 | 35799 ft | 408 kts | 267° |
| 2026-05-07 21:38 | -31.24433 | -60.12775 | 35807 ft | 407 kts | 267° |
| 2026-05-07 21:38 | -31.25478 | -60.19277 | 35835 ft | 407 kts | 266° |
| 2026-05-07 21:39 | -31.26512 | -60.25735 | 35819 ft | 407 kts | 265° |
| 2026-05-07 21:39 | -31.27551 | -60.32244 | 35814 ft | 406 kts | 265° |
| 2026-05-07 21:40 | -31.28582 | -60.38726 | 35809 ft | 406 kts | 266° |
| 2026-05-07 21:40 | -31.29610 | -60.45209 | 35816 ft | 405 kts | 266° |
| 2026-05-07 21:41 | -31.30633 | -60.51685 | 35825 ft | 405 kts | 265° |
| 2026-05-07 21:41 | -31.31655 | -60.58175 | 35825 ft | 406 kts | 265° |
| 2026-05-07 21:42 | -31.32670 | -60.64642 | 35823 ft | 406 kts | 265° |
| 2026-05-07 21:42 | -31.33688 | -60.71151 | 35827 ft | 407 kts | 265° |
| 2026-05-07 21:43 | -31.34705 | -60.77679 | 35843 ft | 408 kts | 263° |
| 2026-05-07 21:43 | -31.35721 | -60.84220 | 35838 ft | 409 kts | 263° |
| 2026-05-07 21:44 | -31.36737 | -60.90780 | 35835 ft | 410 kts | 263° |
| 2026-05-07 21:44 | -31.37752 | -60.97361 | 35833 ft | 411 kts | 263° |
| 2026-05-07 21:45 | -31.38760 | -61.03916 | 35836 ft | 412 kts | 263° |
| 2026-05-07 21:45 | -31.39772 | -61.10528 | 35841 ft | 413 kts | 262° |
| 2026-05-07 21:46 | -31.40782 | -61.17144 | 35837 ft | 413 kts | 262° |
| 2026-05-07 21:46 | -31.41789 | -61.23762 | 35837 ft | 412 kts | 262° |
| 2026-05-07 21:47 | -31.42791 | -61.30370 | 35838 ft | 412 kts | 262° |
| 2026-05-07 21:47 | -31.43785 | -61.36957 | 35851 ft | 411 kts | 261° |
| 2026-05-07 21:48 | -31.44771 | -61.43511 | 35839 ft | 410 kts | 261° |
| 2026-05-07 21:48 | -31.45756 | -61.50082 | 35843 ft | 409 kts | 261° |
| 2026-05-07 21:49 | -31.46735 | -61.56635 | 35850 ft | 408 kts | 261° |
| 2026-05-07 21:49 | -31.47711 | -61.63193 | 35852 ft | 408 kts | 261° |
| 2026-05-07 21:50 | -31.48680 | -61.69730 | 35854 ft | 407 kts | 261° |
| 2026-05-07 21:50 | -31.49646 | -61.76268 | 35852 ft | 407 kts | 261° |
| 2026-05-07 21:51 | -31.50608 | -61.82803 | 35854 ft | 407 kts | 261° |
| 2026-05-07 21:51 | -31.51566 | -61.89337 | 35855 ft | 407 kts | 261° |
| 2026-05-07 21:52 | -31.52514 | -61.95823 | 35868 ft | 406 kts | 260° |
| 2026-05-07 21:52 | -31.53464 | -62.02351 | 35854 ft | 406 kts | 260° |
| 2026-05-07 21:53 | -31.54409 | -62.08867 | 35860 ft | 405 kts | 260° |
| 2026-05-07 21:53 | -31.55351 | -62.15382 | 35859 ft | 405 kts | 260° |
| 2026-05-07 21:54 | -31.56287 | -62.21883 | 35859 ft | 404 kts | 260° |
| 2026-05-07 21:54 | -31.57217 | -62.28371 | 35862 ft | 402 kts | 258° |
| 2026-05-07 21:55 | -31.58140 | -62.34826 | 35857 ft | 400 kts | 258° |
| 2026-05-07 21:55 | -31.59050 | -62.41222 | 35862 ft | 398 kts | 258° |
| 2026-05-07 21:56 | -31.59960 | -62.47632 | 35865 ft | 397 kts | 258° |
| 2026-05-07 21:56 | -31.60863 | -62.54021 | 35858 ft | 397 kts | 257° |
| 2026-05-07 21:57 | -31.61760 | -62.60393 | 35866 ft | 395 kts | 257° |
| 2026-05-07 21:57 | -31.62652 | -62.66755 | 35864 ft | 394 kts | 257° |
| 2026-05-07 21:58 | -31.63532 | -62.73053 | 35867 ft | 393 kts | 257° |
| 2026-05-07 21:58 | -31.64413 | -62.79376 | 35877 ft | 392 kts | 257° |
| 2026-05-07 21:59 | -31.65288 | -62.85684 | 35873 ft | 390 kts | 256° |
| 2026-05-07 21:59 | -31.66157 | -62.91978 | 35879 ft | 389 kts | 256° |
| 2026-05-07 22:00 | -31.67020 | -62.98240 | 35879 ft | 388 kts | 256° |
| 2026-05-07 22:00 | -31.67878 | -63.04491 | 35884 ft | 387 kts | 256° |
| 2026-05-07 22:01 | -31.68727 | -63.10700 | 35880 ft | 387 kts | 256° |
| 2026-05-07 22:01 | -31.69576 | -63.16936 | 35876 ft | 386 kts | 254° |
| 2026-05-07 22:02 | -31.70421 | -63.23168 | 35881 ft | 386 kts | 254° |
| 2026-05-07 22:02 | -31.71264 | -63.29397 | 35886 ft | 386 kts | 254° |
| 2026-05-07 22:03 | -31.71963 | -63.34583 | 35885 ft | 387 kts | 254° |
| 2026-05-07 22:03 | -31.72800 | -63.40824 | 35888 ft | 387 kts | 255° |
| 2026-05-07 22:04 | -31.73634 | -63.47065 | 35888 ft | 386 kts | 254° |
| 2026-05-07 22:04 | -31.74466 | -63.53313 | 35886 ft | 385 kts | 254° |
| 2026-05-07 22:05 | -31.75290 | -63.59526 | 35888 ft | 384 kts | 254° |
| 2026-05-07 22:05 | -31.76109 | -63.65722 | 35886 ft | 383 kts | 254° |
| 2026-05-07 22:06 | -31.76923 | -63.71909 | 35893 ft | 382 kts | 254° |
| 2026-05-07 22:06 | -31.77724 | -63.78023 | 35892 ft | 380 kts | 253° |
| 2026-05-07 22:07 | -31.78524 | -63.84145 | 35887 ft | 378 kts | 253° |
| 2026-05-07 22:07 | -31.79318 | -63.90242 | 35894 ft | 376 kts | 253° |
| 2026-05-07 22:08 | -31.80106 | -63.96320 | 35900 ft | 376 kts | 253° |
| 2026-05-07 22:08 | -31.80892 | -64.02396 | 35891 ft | 376 kts | 254° |
| 2026-05-07 22:09 | -31.81674 | -64.08470 | 35893 ft | 375 kts | 253° |
| 2026-05-07 22:09 | -31.82451 | -64.14534 | 35896 ft | 375 kts | 253° |
| 2026-05-07 22:10 | -31.83219 | -64.20548 | 35899 ft | 374 kts | 253° |
| 2026-05-07 22:10 | -31.83989 | -64.26607 | 35901 ft | 374 kts | 253° |
| 2026-05-07 22:11 | -31.84756 | -64.32654 | 35906 ft | 374 kts | 253° |
| 2026-05-07 22:11 | -31.85519 | -64.38706 | 35889 ft | 373 kts | 253° |
| 2026-05-07 22:12 | -31.86277 | -64.44740 | 35900 ft | 373 kts | 253° |
| 2026-05-07 22:12 | -31.87033 | -64.50777 | 35920 ft | 372 kts | 254° |
| 2026-05-07 22:13 | -31.87785 | -64.56807 | 35925 ft | 373 kts | 254° |
| 2026-05-07 22:13 | -31.88536 | -64.62846 | 35933 ft | 373 kts | 254° |
| 2026-05-07 22:14 | -31.89285 | -64.68900 | 35933 ft | 374 kts | 254° |
| 2026-05-07 22:14 | -31.90028 | -64.74929 | 35941 ft | 374 kts | 254° |
| 2026-05-07 22:15 | -31.90773 | -64.80998 | 35940 ft | 374 kts | 254° |
| 2026-05-07 22:15 | -31.91515 | -64.87067 | 35950 ft | 375 kts | 254° |
| 2026-05-07 22:16 | -31.92255 | -64.93143 | 35940 ft | 375 kts | 254° |
| 2026-05-07 22:16 | -31.92988 | -64.99195 | 35932 ft | 375 kts | 253° |
| 2026-05-07 22:17 | -31.93723 | -65.05279 | 35943 ft | 375 kts | 253° |
| 2026-05-07 22:17 | -31.94456 | -65.11376 | 35955 ft | 376 kts | 253° |
| 2026-05-07 22:18 | -31.95550 | -65.20520 | 35951 ft | 376 kts | 253° |
| 2026-05-07 22:19 | -31.96275 | -65.26614 | 35947 ft | 376 kts | 253° |
| 2026-05-07 22:19 | -31.96997 | -65.32707 | 35944 ft | 375 kts | 253° |
| 2026-05-07 22:20 | -31.97711 | -65.38756 | 35940 ft | 375 kts | 253° |
| 2026-05-07 22:20 | -31.98426 | -65.44841 | 35941 ft | 375 kts | 253° |
| 2026-05-07 22:21 | -31.99140 | -65.50938 | 35938 ft | 376 kts | 253° |
| 2026-05-07 22:21 | -31.99853 | -65.57048 | 35937 ft | 376 kts | 253° |
| 2026-05-07 22:22 | -32.00563 | -65.63171 | 35938 ft | 377 kts | 253° |
| 2026-05-07 22:22 | -32.01269 | -65.69284 | 35932 ft | 377 kts | 253° |
| 2026-05-07 22:23 | -32.01972 | -65.75394 | 35934 ft | 376 kts | 253° |
| 2026-05-07 22:23 | -32.02665 | -65.81453 | 35934 ft | 375 kts | 253° |
| 2026-05-07 22:24 | -32.03359 | -65.87539 | 35933 ft | 374 kts | 253° |
| 2026-05-07 22:24 | -32.04048 | -65.93605 | 35925 ft | 372 kts | 253° |
| 2026-05-07 22:25 | -32.04727 | -65.99624 | 35925 ft | 368 kts | 253° |
| 2026-05-07 22:25 | -32.05396 | -66.05575 | 35929 ft | 365 kts | 252° |
| 2026-05-07 22:26 | -32.06059 | -66.11484 | 35932 ft | 362 kts | 252° |
| 2026-05-07 22:26 | -32.06719 | -66.17376 | 35941 ft | 361 kts | 252° |
| 2026-05-07 22:27 | -32.07370 | -66.23220 | 35941 ft | 362 kts | 253° |
| 2026-05-07 22:27 | -32.08021 | -66.29106 | 35939 ft | 362 kts | 252° |
| 2026-05-07 22:28 | -32.08673 | -66.35019 | 35943 ft | 363 kts | 253° |
| 2026-05-07 22:28 | -32.09322 | -66.40930 | 35950 ft | 364 kts | 253° |
| 2026-05-07 22:29 | -32.09972 | -66.46868 | 35945 ft | 365 kts | 253° |
| 2026-05-07 22:29 | -32.10903 | -66.52657 | 35944 ft | 356 kts | 244° |
| 2026-05-07 22:30 | -32.12664 | -66.58072 | 35918 ft | 353 kts | 241° |
| 2026-05-07 22:30 | -32.14468 | -66.63467 | 35933 ft | 354 kts | 241° |
| 2026-05-07 22:31 | -32.16264 | -66.68879 | 35950 ft | 354 kts | 242° |
| 2026-05-07 22:31 | -32.18055 | -66.74307 | 35950 ft | 355 kts | 242° |
| 2026-05-07 22:31 | -32.18950 | -66.77030 | 35745 ft | 358 kts | 242° |
| 2026-05-07 22:32 | -32.19842 | -66.79752 | 35434 ft | 353 kts | 241° |
| 2026-05-07 22:32 | -32.20720 | -66.82438 | 35037 ft | 347 kts | 240° |
| 2026-05-07 22:32 | -32.21583 | -66.85083 | 34588 ft | 343 kts | 240° |
| 2026-05-07 22:32 | -32.22435 | -66.87692 | 34179 ft | 338 kts | 239° |
| 2026-05-07 22:33 | -32.23274 | -66.90261 | 33711 ft | 333 kts | 238° |
| 2026-05-07 22:33 | -32.24212 | -66.92623 | 33540 ft | 313 kts | 232° |
| 2026-05-07 22:33 | -32.25286 | -66.94814 | 33269 ft | 304 kts | 231° |
| 2026-05-07 22:33 | -32.26342 | -66.96954 | 33004 ft | 299 kts | 231° |
| 2026-05-07 22:34 | -32.27398 | -66.99087 | 32763 ft | 304 kts | 232° |
| 2026-05-07 22:34 | -32.28480 | -67.01268 | 32516 ft | 311 kts | 232° |
| 2026-05-07 22:34 | -32.29577 | -67.03490 | 32268 ft | 313 kts | 232° |
| 2026-05-07 22:34 | -32.30664 | -67.05708 | 32009 ft | 311 kts | 232° |
| 2026-05-07 22:35 | -32.31743 | -67.07915 | 31790 ft | 309 kts | 233° |
| 2026-05-07 22:35 | -32.32815 | -67.10111 | 31539 ft | 308 kts | 233° |
| 2026-05-07 22:35 | -32.33887 | -67.12307 | 31400 ft | 311 kts | 233° |
| 2026-05-07 22:35 | -32.35001 | -67.14578 | 31295 ft | 326 kts | 233° |
| 2026-05-07 22:36 | -32.36167 | -67.16956 | 31184 ft | 340 kts | 233° |
| 2026-05-07 22:36 | -32.37355 | -67.19387 | 31076 ft | 352 kts | 234° |
| 2026-05-07 22:36 | -32.38601 | -67.21941 | 30924 ft | 364 kts | 234° |
| 2026-05-07 22:36 | -32.39880 | -67.24571 | 30802 ft | 374 kts | 234° |
| 2026-05-07 22:37 | -32.41188 | -67.27267 | 30688 ft | 379 kts | 234° |
| 2026-05-07 22:37 | -32.42497 | -67.29975 | 30557 ft | 377 kts | 234° |
| 2026-05-07 22:37 | -32.43796 | -67.32665 | 30433 ft | 376 kts | 234° |
| 2026-05-07 22:37 | -32.45096 | -67.35355 | 30312 ft | 376 kts | 235° |
| 2026-05-07 22:38 | -32.46391 | -67.38035 | 30193 ft | 375 kts | 235° |
| 2026-05-07 22:38 | -32.47684 | -67.40711 | 30075 ft | 374 kts | 235° |
| 2026-05-07 22:38 | -32.48977 | -67.43386 | 29943 ft | 374 kts | 235° |
| 2026-05-07 22:38 | -32.50268 | -67.46057 | 29804 ft | 373 kts | 235° |
| 2026-05-07 22:39 | -32.51557 | -67.48727 | 29664 ft | 373 kts | 235° |
| 2026-05-07 22:39 | -32.52846 | -67.51400 | 29488 ft | 373 kts | 235° |
| 2026-05-07 22:39 | -32.54122 | -67.54044 | 29207 ft | 375 kts | 235° |
| 2026-05-07 22:39 | -32.55418 | -67.56732 | 28829 ft | 376 kts | 234° |
| 2026-05-07 22:40 | -32.56707 | -67.59411 | 28323 ft | 370 kts | 234° |
| 2026-05-07 22:40 | -32.57972 | -67.62046 | 27778 ft | 365 kts | 235° |
| 2026-05-07 22:40 | -32.59216 | -67.64636 | 27242 ft | 358 kts | 235° |
| 2026-05-07 22:40 | -32.60437 | -67.67183 | 26688 ft | 351 kts | 235° |
| 2026-05-07 22:41 | -32.61638 | -67.69686 | 26096 ft | 347 kts | 236° |
| 2026-05-07 22:41 | -32.62826 | -67.72161 | 25523 ft | 343 kts | 236° |
| 2026-05-07 22:41 | -32.63999 | -67.74605 | 24958 ft | 339 kts | 236° |
| 2026-05-07 22:41 | -32.65158 | -67.77022 | 24406 ft | 335 kts | 236° |
| 2026-05-07 22:42 | -32.66292 | -67.79389 | 23872 ft | 332 kts | 237° |
| 2026-05-07 22:42 | -32.67433 | -67.81770 | 23296 ft | 330 kts | 237° |
| 2026-05-07 22:42 | -32.68559 | -67.84125 | 22665 ft | 327 kts | 237° |
| 2026-05-07 22:42 | -32.69679 | -67.86467 | 22046 ft | 325 kts | 236° |
| 2026-05-07 22:43 | -32.70791 | -67.88795 | 21440 ft | 322 kts | 236° |
| 2026-05-07 22:43 | -32.71894 | -67.91106 | 20869 ft | 320 kts | 236° |
| 2026-05-07 22:43 | -32.72987 | -67.93398 | 20283 ft | 318 kts | 236° |
| 2026-05-07 22:43 | -32.74076 | -67.95681 | 19714 ft | 316 kts | 236° |
| 2026-05-07 22:44 | -32.75156 | -67.97949 | 19147 ft | 314 kts | 236° |
| 2026-05-07 22:44 | -32.76227 | -68.00199 | 18597 ft | 312 kts | 236° |
| 2026-05-07 22:44 | -32.77278 | -68.02408 | 18017 ft | 310 kts | 235° |
| 2026-05-07 22:44 | -32.78338 | -68.04634 | 17401 ft | 308 kts | 236° |
| 2026-05-07 22:45 | -32.79390 | -68.06846 | 16787 ft | 307 kts | 236° |
| 2026-05-07 22:45 | -32.80436 | -68.09047 | 16178 ft | 305 kts | 236° |
| 2026-05-07 22:45 | -32.81474 | -68.11234 | 15591 ft | 303 kts | 237° |
| 2026-05-07 22:45 | -32.82506 | -68.13409 | 15006 ft | 301 kts | 237° |
| 2026-05-07 22:46 | -32.83526 | -68.15560 | 14427 ft | 295 kts | 238° |
| 2026-05-07 22:46 | -32.84509 | -68.17638 | 13980 ft | 281 kts | 238° |
| 2026-05-07 22:46 | -32.85440 | -68.19607 | 13619 ft | 265 kts | 238° |
| 2026-05-07 22:46 | -32.86320 | -68.21469 | 13273 ft | 252 kts | 238° |
| 2026-05-07 22:47 | -32.87157 | -68.23240 | 12989 ft | 241 kts | 238° |
| 2026-05-07 22:47 | -32.87977 | -68.24972 | 12678 ft | 238 kts | 238° |
| 2026-05-07 22:47 | -32.88783 | -68.26677 | 12364 ft | 235 kts | 237° |
| 2026-05-07 22:47 | -32.89580 | -68.28363 | 12060 ft | 232 kts | 237° |
| 2026-05-07 22:48 | -32.90369 | -68.30033 | 11752 ft | 230 kts | 237° |
| 2026-05-07 22:48 | -32.91145 | -68.31676 | 11464 ft | 233 kts | 236° |
| 2026-05-07 22:48 | -32.91949 | -68.33375 | 11186 ft | 238 kts | 236° |
| 2026-05-07 22:48 | -32.92772 | -68.35115 | 10895 ft | 243 kts | 236° |
| 2026-05-07 22:49 | -32.93599 | -68.36870 | 10601 ft | 242 kts | 235° |
| 2026-05-07 22:49 | -32.94422 | -68.38618 | 10305 ft | 242 kts | 235° |
| 2026-05-07 22:49 | -32.95244 | -68.40364 | 10032 ft | 242 kts | 234° |
| 2026-05-07 22:49 | -32.96065 | -68.42110 | 9730 ft | 242 kts | 234° |
| 2026-05-07 22:50 | -32.96885 | -68.43853 | 9413 ft | 241 kts | 234° |
| 2026-05-07 22:50 | -32.97428 | -68.45008 | 9209 ft | 241 kts | 234° |
| 2026-05-07 22:50 | -32.98248 | -68.46751 | 8898 ft | 241 kts | 235° |
| 2026-05-07 22:50 | -32.99071 | -68.48501 | 8589 ft | 242 kts | 235° |
| 2026-05-07 22:51 | -32.99892 | -68.50250 | 8283 ft | 242 kts | 236° |
| 2026-05-07 22:51 | -33.00717 | -68.52008 | 7981 ft | 243 kts | 236° |
| 2026-05-07 22:51 | -33.01545 | -68.53773 | 7670 ft | 245 kts | 237° |
| 2026-05-07 22:51 | -33.02389 | -68.55571 | 7378 ft | 251 kts | 237° |
| 2026-05-07 22:52 | -33.03237 | -68.57379 | 7108 ft | 254 kts | 237° |
| 2026-05-07 22:52 | -33.04071 | -68.59165 | 7031 ft | 238 kts | 237° |
| 2026-05-07 22:52 | -33.04845 | -68.60824 | 6961 ft | 220 kts | 238° |
| 2026-05-07 22:52 | -33.05306 | -68.62493 | 6892 ft | 210 kts | 264° |
| 2026-05-07 22:53 | -33.05294 | -68.64204 | 6755 ft | 204 kts | 267° |
| 2026-05-07 22:53 | -33.05273 | -68.65882 | 6608 ft | 201 kts | 267° |
| 2026-05-07 22:53 | -33.05255 | -68.67549 | 6489 ft | 201 kts | 267° |
| 2026-05-07 22:53 | -33.05238 | -68.69215 | 6366 ft | 202 kts | 268° |
| 2026-05-07 22:54 | -33.05220 | -68.70892 | 6202 ft | 203 kts | 268° |
| 2026-05-07 22:54 | -33.05203 | -68.72577 | 6047 ft | 203 kts | 268° |
| 2026-05-07 22:54 | -33.05185 | -68.74223 | 5886 ft | 193 kts | 268° |
| 2026-05-07 22:54 | -33.05168 | -68.75757 | 5725 ft | 182 kts | 268° |
| 2026-05-07 22:55 | -33.05144 | -68.77236 | 5599 ft | 178 kts | 274° |
| 2026-05-07 22:55 | -33.04663 | -68.78583 | 5483 ft | 180 kts | 311° |
| 2026-05-07 22:55 | -33.03641 | -68.79406 | 5383 ft | 180 kts | 346° |
| 2026-05-07 22:55 | -33.02405 | -68.79576 | 5343 ft | 180 kts | 356° |
| 2026-05-07 22:56 | -33.01142 | -68.79634 | 5218 ft | 182 kts | 360° |
| 2026-05-07 22:56 | -32.99888 | -68.79633 | 5143 ft | 182 kts | 1° |
| 2026-05-07 22:56 | -32.98619 | -68.79612 | 5053 ft | 182 kts | 1° |
| 2026-05-07 22:56 | -32.97342 | -68.79585 | 4854 ft | 183 kts | 1° |
| 2026-05-07 22:57 | -32.96092 | -68.79559 | 4616 ft | 174 kts | 1° |
| 2026-05-07 22:57 | -32.94924 | -68.79535 | 4374 ft | 161 kts | 0° |
| 2026-05-07 22:57 | -32.93831 | -68.79512 | 4187 ft | 155 kts | 0° |
| 2026-05-07 22:57 | -32.92757 | -68.79490 | 3992 ft | 157 kts | 0° |
| 2026-05-07 22:58 | -32.91685 | -68.79468 | 3800 ft | 153 kts | 360° |
| 2026-05-07 22:58 | -32.90625 | -68.79445 | 3585 ft | 151 kts | 360° |
| 2026-05-07 22:58 | -32.89586 | -68.79424 | 3403 ft | 151 kts | 360° |
| 2026-05-07 22:58 | -32.88565 | -68.79403 | 3187 ft | 141 kts | 360° |
| 2026-05-07 22:59 | -32.87609 | -68.79383 | 3002 ft | 134 kts | 0° |
| 2026-05-07 22:59 | -32.86672 | -68.79364 | 2850 ft | 136 kts | 359° |
| 2026-05-07 22:59 | -32.85714 | -68.79343 | 2648 ft | 138 kts | 1° |
| 2026-05-07 22:59 | -32.84750 | -68.79325 | 2453 ft | 140 kts | 1° |
| 2026-05-07 23:00 | -32.83794 | -68.79304 | 2341 ft | 124 kts | 1° |
| 2026-05-07 23:00 | -32.83225 | -68.79292 | 2340 ft | 26 kts | 0° |
| 2026-05-07 23:00 | -32.83158 | -68.79323 | 2340 ft | 7 kts | 298° |
| 2026-05-07 23:00 | -32.83152 | -68.79359 | 2340 ft | 1 kts | 272° |
| 2026-05-07 23:01 | -32.83153 | -68.79369 | 2341 ft | 1 kts | 265° |
| 2026-05-07 23:01 | -32.83153 | -68.79371 | 2341 ft | 0 kts | 265° |
| 2026-05-07 23:03 | -32.83153 | -68.79375 | 2342 ft | 1 kts | 265° |
| 2026-05-07 23:03 | -32.83158 | -68.79401 | 2341 ft | 5 kts | 249° |
| 2026-05-07 23:03 | -32.83186 | -68.79445 | 2342 ft | 8 kts | 226° |
| 2026-05-07 23:03 | -32.83201 | -68.79462 | 2343 ft | 2 kts | 225° |
| 2026-05-07 23:04 | -32.83219 | -68.79484 | 2341 ft | 5 kts | 225° |
| 2026-05-07 23:04 | -32.83224 | -68.79502 | 2345 ft | 2 kts | 285° |
| 2026-05-07 23:04 | -32.83193 | -68.79515 | 2343 ft | 9 kts | 355° |
| 2026-05-07 23:04 | -32.83125 | -68.79513 | 2344 ft | 9 kts | 1° |
| 2026-05-07 23:05 | -32.83055 | -68.79513 | 2342 ft | 11 kts | 355° |
| 2026-05-07 23:05 | -32.82990 | -68.79559 | 2341 ft | 10 kts | 320° |
| 2026-05-07 23:05 | -32.82940 | -68.79610 | 2341 ft | 5 kts | 318° |
| 2026-05-07 23:05 | -32.82931 | -68.79653 | 2341 ft | 6 kts | 271° |
| 2026-05-07 23:06 | -32.82913 | -68.79704 | 2343 ft | 8 kts | 331° |
| 2026-05-07 23:06 | -32.82856 | -68.79709 | 2341 ft | 9 kts | 1° |
| 2026-05-07 23:06 | -32.82814 | -68.79708 | 2341 ft | 5 kts | 1° |
| 2026-05-07 23:06 | -32.82780 | -68.79708 | 2341 ft | 3 kts | 359° |
| 2026-05-07 23:07 | -32.82763 | -68.79723 | 2342 ft | 2 kts | 294° |
| 2026-05-07 23:07 | -32.82769 | -68.79742 | 2342 ft | 3 kts | 237° |
| 2026-05-07 23:07 | -32.82782 | -68.79766 | 2344 ft | 3 kts | 236° |
| 2026-05-07 23:07 | -32.82786 | -68.79773 | 2345 ft | 0 kts | 234° |
| 2026-05-07 23:09 | -32.82786 | -68.79772 | 2345 ft | 0 kts | 234° |